Criccieth, United Kingdom
Current Conditions -  °F | °C
As of 11:50 PM on Saturday 25 Oct 2014 (Local Time) from EGOV Reporting Station
Broken Clouds Broken Clouds  
Wind Chill: 14°   Ceiling: 4300
Heat Index: 14°   Visibility: 6mi
Dew Point: 11°   Wind: 32mph
Humidity: 82%   Direction: 220°SW
Pressure: 29.94"   Gusts: NA
Location:  52.92°N, 4.23°W
Report Text: EGOV 252250Z AUTO 22028KT 9999 BKN043/// 14/11 Q1014
Loading
Personal Weather Stations






























Interactive Weather Map
Tropical Storm Tracking
New forecast layout! Learn more

10-Day Weather Forecast

Advertisements
Track Severe Weather on mobile